Hauptseite
METAR-TAF:

METAR-TAF

Flughäfen :

Flughafen Bahrain

Bahrain, Bahrain

Breite: 26-16N, Länge: 050-39E, Höhe: 2 m

Beobachtung

Neuester Wetterbericht von vor 20 Minuten, um 18:30 UTC
Wind 5 kt aus Nord
Temperatur 27°C
Luftfeuchtigkeit 79%
Luftdruck 1017 hPa
Sichtweite: 8000 m

METAR: OBBI 161830Z 36005KT 8000 NSC 27/23 Q1017 NOSIG

Zeit: 21:50 (18:50 UTC)

Prognose

Neuester Wetterbericht von vor 1 Stunde und 50 Minuten, um 17:00 UTC
Gültige Prognose vom 16 um 18 UTC bis 18 um 00 UTC
Wind 12 kt aus Nord/Nordwest
Sichtweite: 8000 m
Aufgelockert bewölkt in der Höhe von 3000 ft
Übergehend zu
vom 17 um 04 UTC bis 17 um 06 UTC
Wind 15 kt aus Nord/Nordwest, Böen bis zu 25 kt

TAF: OBBI 161700Z 1618/1800 34012KT 8000 SCT030 BECMG 1704/1706 33015G25KT

Wetterbeobachtungen und Prognosen von mehr als 4000 Flughäfen (METAR und TAF Bericht).

Die verfügbaren Stationen werden durch gelbe und rote Markierungen auf der Karte dargestellt.

Führen Sie die Maus auf sie, um den Namen der Station zu sehen.

Darauf klicken, um die Beobachtung von Wetterbeobachtungen und Prognosen zu sehen.

Um die Karte zu ändern : klicken Sie auf den grünen Tasten mit einem schwarzen Kreuz Zum Vergrößern, auf den grünen Button mit einem Gedankenstrich zu verkleinern, oder auf die grünen Pfeile für benachbarte Karten.


METAR-TAF: